Time;durP1;ratioP1;P1;durP2;ratioP2;P2;SDS_P1;SDS_P2;PMS_P1;PMS_P2;Temp;Humidity;BMP_temperature;BMP_pressure;BME280_temperature;BME280_humidity;BME280_pressure;Samples;Min_cycle;Max_cycle;Signal;HPM_P1;HPM_P2
2021/04/19 00:00:30;;;;;;;8.82;7.93;;;24.10;53.00;;;;;;5092643;28;20035;-58
2021/04/19 00:02:56;;;;;;;10.00;8.90;;;24.10;53.00;;;;;;5092623;28;20099;-59
2021/04/19 00:05:22;;;;;;;9.50;8.38;;;24.10;53.10;;;;;;5093041;28;20031;-59
2021/04/19 00:07:48;;;;;;;9.77;8.80;;;24.10;53.10;;;;;;5092853;28;20043;-58
2021/04/19 00:10:16;;;;;;;10.18;8.77;;;24.10;53.10;;;;;;5092315;28;20054;-59
2021/04/19 00:12:44;;;;;;;9.15;8.25;;;24.10;53.10;;;;;;5092308;28;20024;-58
2021/04/19 00:15:11;;;;;;;8.45;7.55;;;24.10;53.10;;;;;;5092604;28;20035;-60
2021/04/19 00:17:38;;;;;;;8.98;7.75;;;24.10;53.10;;;;;;5092239;28;20035;-58
2021/04/19 00:20:05;;;;;;;8.23;7.15;;;24.10;53.20;;;;;;5092492;28;20021;-58
2021/04/19 00:22:31;;;;;;;10.07;7.15;;;24.10;53.10;;;;;;5092161;28;20032;-58
2021/04/19 00:24:57;;;;;;;8.23;7.30;;;24.10;53.10;;;;;;5092481;28;20458;-58
2021/04/19 00:27:23;;;;;;;8.57;7.30;;;24.10;53.10;;;;;;5092753;28;20036;-58
2021/04/19 00:29:49;;;;;;;7.65;6.93;;;24.10;53.20;;;;;;5092252;28;20036;-58
2021/04/19 00:32:15;;;;;;;7.05;6.32;;;24.10;53.20;;;;;;5092009;28;20210;-58
2021/04/19 00:34:41;;;;;;;9.52;6.95;;;24.10;53.10;;;;;;5091934;28;20387;-59
2021/04/19 00:37:07;;;;;;;7.63;6.85;;;24.10;53.20;;;;;;5093898;28;20039;-58
2021/04/19 00:39:33;;;;;;;7.53;6.25;;;24.10;53.20;;;;;;5077524;28;20039;-59
2021/04/19 00:41:59;;;;;;;6.95;6.25;;;24.10;53.10;;;;;;5095706;28;20024;-59
2021/04/19 00:44:26;;;;;;;7.30;6.18;;;24.00;53.10;;;;;;5095568;28;20522;-59
2021/04/19 00:46:52;;;;;;;8.02;5.70;;;24.10;53.10;;;;;;5077377;28;20036;-58
2021/04/19 00:49:19;;;;;;;6.38;5.72;;;24.10;53.20;;;;;;5095828;28;20056;-57
2021/04/19 00:51:45;;;;;;;5.68;5.05;;;24.10;53.10;;;;;;5077358;28;20024;-58
2021/04/19 00:54:12;;;;;;;6.68;5.97;;;24.10;53.10;;;;;;5076952;28;20056;-59
2021/04/19 00:56:39;;;;;;;6.90;5.10;;;24.00;53.00;;;;;;5095399;28;20028;-59
2021/04/19 00:59:06;;;;;;;8.60;5.25;;;24.00;53.10;;;;;;5077146;28;20024;-59
2021/04/19 01:01:33;;;;;;;6.28;4.85;;;24.00;53.00;;;;;;5095331;28;20023;-59
2021/04/19 01:04:00;;;;;;;5.45;5.00;;;24.10;53.10;;;;;;5076899;28;20486;-58
2021/04/19 01:06:26;;;;;;;6.15;5.50;;;24.00;53.10;;;;;;5095440;28;20375;-58
2021/04/19 01:08:52;;;;;;;5.45;4.95;;;24.00;53.10;;;;;;5095046;28;20385;-58
2021/04/19 01:11:19;;;;;;;7.32;6.15;;;24.10;53.20;;;;;;5077035;28;20035;-58
2021/04/19 01:13:47;;;;;;;8.52;5.70;;;24.00;53.10;;;;;;5076985;28;20024;-59
2021/04/19 01:16:13;;;;;;;5.72;5.07;;;24.00;53.10;;;;;;5077387;28;20032;-59
2021/04/19 01:18:39;;;;;;;5.90;4.90;;;24.00;53.20;;;;;;5076343;28;20401;-60
2021/04/19 01:21:07;;;;;;;6.35;5.60;;;24.00;53.20;;;;;;5094909;28;20389;-59
2021/04/19 01:23:33;;;;;;;6.70;5.40;;;24.00;53.20;;;;;;5094748;28;20059;-59
2021/04/19 01:26:00;;;;;;;5.75;5.10;;;24.00;53.20;;;;;;5094982;28;20036;-60
2021/04/19 01:28:27;;;;;;;5.70;5.07;;;24.00;53.20;;;;;;5094802;28;20024;-59
2021/04/19 01:30:55;;;;;;;5.13;4.55;;;24.00;53.20;;;;;;5094673;28;20036;-59
2021/04/19 01:33:23;;;;;;;6.50;4.88;;;24.00;53.20;;;;;;5076418;28;20024;-60
2021/04/19 01:35:51;;;;;;;5.60;4.90;;;24.00;53.20;;;;;;5094508;28;20109;-59
2021/04/19 01:38:21;;;;;;;7.07;5.15;;;24.00;53.20;;;;;;5094887;28;20028;-60
2021/04/19 01:40:49;;;;;;;5.65;4.45;;;24.00;53.20;;;;;;5094545;28;20032;-60
2021/04/19 01:43:18;;;;;;;6.00;4.53;;;24.00;53.20;;;;;;5094557;28;20447;-59
2021/04/19 01:45:57;;;;;;;6.30;5.07;;;24.00;53.20;;;;;;5074249;28;20528;-59
2021/04/19 01:48:24;;;;;;;5.53;4.93;;;24.00;53.20;;;;;;5059377;28;20533;-59
2021/04/19 01:50:53;;;;;;;5.32;4.82;;;24.00;53.20;;;;;;5075966;28;20059;-59
2021/04/19 01:53:20;;;;;;;4.70;4.30;;;24.00;53.20;;;;;;5059348;28;20118;-59
2021/04/19 01:55:47;;;;;;;6.72;5.13;;;24.00;53.80;;;;;;5076339;28;20031;-59
2021/04/19 01:58:20;;;;;;;8.25;5.03;;;24.00;53.30;;;;;;5075602;28;20115;-59
2021/04/19 02:00:56;;;;;;;5.25;4.22;;;24.00;53.30;;;;;;5094109;28;20092;-59
2021/04/19 02:03:55;;;;;;;5.57;4.25;;;24.00;53.30;;;;;;5059077;28;20031;-60
2021/04/19 02:06:36;;;;;;;6.13;4.47;;;24.00;53.30;;;;;;5093808;28;20059;-59
2021/04/19 02:09:37;;;;;;;5.55;4.28;;;24.00;53.20;;;;;;5093314;28;20027;-59
2021/04/19 02:12:24;;;;;;;5.10;4.35;;;24.00;53.20;;;;;;5059173;28;20030;-59
2021/04/19 02:15:04;;;;;;;7.97;4.70;;;24.00;53.20;;;;;;5093960;28;20363;-57
2021/04/19 02:17:39;;;;;;;4.68;4.28;;;24.00;53.20;;;;;;5093434;28;20032;-58
2021/04/19 02:20:09;;;;;;;6.22;4.75;;;24.00;53.20;;;;;;5093176;28;20028;-58
2021/04/19 02:22:43;;;;;;;6.93;4.13;;;24.00;53.20;;;;;;5093927;28;20059;-58
2021/04/19 02:25:18;;;;;;;4.30;3.90;;;24.00;53.20;;;;;;5075790;28;20369;-58
2021/04/19 02:27:50;;;;;;;6.50;4.47;;;24.00;53.20;;;;;;5094036;28;20040;-58
2021/04/19 02:30:18;;;;;;;4.60;4.03;;;23.80;53.10;;;;;;5093648;28;20032;-58
2021/04/19 02:32:49;;;;;;;4.88;4.45;;;24.00;53.20;;;;;;5058763;28;20074;-59
2021/04/19 02:35:21;;;;;;;6.68;4.72;;;24.00;53.20;;;;;;5041499;28;20051;-58
2021/04/19 02:37:59;;;;;;;5.30;4.30;;;24.00;53.20;;;;;;5040470;28;20482;-58
2021/04/19 02:40:32;;;;;;;5.32;4.03;;;24.00;53.20;;;;;;5073218;28;20029;-58
2021/04/19 02:43:00;;;;;;;4.20;3.80;;;24.00;53.20;;;;;;5055068;28;20024;-58
2021/04/19 02:45:27;;;;;;;5.20;4.20;;;24.00;53.20;;;;;;5055089;28;20036;-57
2021/04/19 02:48:03;;;;;;;5.82;4.90;;;24.00;53.20;;;;;;5055273;28;20055;-59
2021/04/19 02:50:42;;;;;;;;;;;24.00;53.20;;;;;;5055589;28;20062;-58
2021/04/19 02:53:09;;;;;;;5.78;4.22;;;24.00;53.30;;;;;;5073143;28;19908;-58
2021/04/19 02:55:37;;;;;;;4.68;4.10;;;24.00;53.00;;;;;;5072984;28;20387;-58
2021/04/19 02:58:06;;;;;;;4.20;3.80;;;24.00;53.00;;;;;;5072828;28;20028;-58
2021/04/19 03:00:42;;;;;;;5.53;3.70;;;24.00;53.00;;;;;;5055059;28;20020;-57
2021/04/19 03:03:17;;;;;;;5.38;4.20;;;24.00;53.10;;;;;;5038276;28;20060;-58
2021/04/19 03:05:45;;;;;;;4.22;3.83;;;24.00;53.10;;;;;;5072794;28;20423;-58
2021/04/19 03:08:17;;;;;;;6.28;4.72;;;24.00;53.10;;;;;;5072752;28;20017;-58
2021/04/19 03:10:52;;;;;;;4.18;3.72;;;23.90;53.10;;;;;;5054821;28;20055;-58
2021/04/19 03:13:20;;;;;;;6.72;4.10;;;23.90;53.10;;;;;;5072380;28;20041;-58
2021/04/19 03:15:51;;;;;;;6.47;3.30;;;24.00;53.20;;;;;;5054318;28;20035;-58
2021/04/19 03:18:18;;;;;;;;;;;23.90;53.10;;;;;;5072631;28;20047;-58
2021/04/19 03:21:14;;;;;;;4.78;3.58;;;23.90;53.30;;;;;;5071877;28;20342;-58
2021/04/19 03:23:58;;;;;;;5.03;4.00;;;24.00;53.00;;;;;;5054590;28;20065;-58
2021/04/19 03:26:39;;;;;;;4.15;3.53;;;24.00;53.00;;;;;;5054403;28;20025;-59
2021/04/19 03:29:06;;;;;;;6.28;3.75;;;24.00;53.10;;;;;;5072334;28;20082;-58
2021/04/19 03:31:57;;;;;;;5.00;4.05;;;24.00;53.10;;;;;;5054854;28;20028;-58
2021/04/19 03:34:26;;;;;;;4.63;4.03;;;23.90;53.10;;;;;;5079893;28;20129;-58
2021/04/19 03:37:16;;;;;;;8.02;3.92;;;24.00;53.10;;;;;;5074062;28;20454;-58
2021/04/19 03:40:08;;;;;;;4.28;3.88;;;23.90;53.10;;;;;;5074879;28;20028;-57
2021/04/19 03:42:39;;;;;;;5.60;3.58;;;23.90;53.10;;;;;;5074254;28;20047;-58
2021/04/19 03:45:13;;;;;;;4.15;3.38;;;23.90;53.10;;;;;;5058258;28;20035;-58
2021/04/19 03:48:07;;;;;;;5.63;4.32;;;23.90;53.10;;;;;;5081283;28;20079;-57
2021/04/19 03:50:55;;;;;;;5.28;3.45;;;23.90;53.10;;;;;;5074075;28;20381;-57
2021/04/19 03:53:25;;;;;;;5.57;3.92;;;24.00;53.20;;;;;;5057089;28;20024;-58
2021/04/19 03:55:54;;;;;;;6.80;3.63;;;23.90;53.10;;;;;;5092168;28;20034;-57
2021/04/19 03:58:25;;;;;;;5.18;3.25;;;23.90;53.10;;;;;;5057393;28;20084;-57
2021/04/19 04:00:52;;;;;;;;;;;23.90;53.20;;;;;;5074706;28;20111;-58
2021/04/19 04:03:50;;;;;;;3.85;3.53;;;23.90;53.30;;;;;;5071806;28;19947;-58
2021/04/19 04:06:43;;;;;;;4.25;3.78;;;24.00;52.90;;;;;;5069673;28;20067;-57
2021/04/19 04:09:11;;;;;;;5.15;3.83;;;24.00;52.90;;;;;;5073898;28;20028;-58
2021/04/19 04:11:38;;;;;;;5.15;3.50;;;24.00;53.00;;;;;;5075095;28;20035;-57
2021/04/19 04:14:16;;;;;;;4.95;3.75;;;23.90;53.00;;;;;;5077764;28;20024;-57
2021/04/19 04:16:44;;;;;;;4.88;3.42;;;23.90;53.10;;;;;;5061428;28;20058;-57
2021/04/19 04:19:11;;;;;;;6.70;4.15;;;23.90;53.10;;;;;;5061223;28;20111;-57
2021/04/19 04:21:54;;;;;;;6.45;4.22;;;23.90;53.20;;;;;;5063274;28;20107;-58
2021/04/19 04:24:29;;;;;;;4.53;3.67;;;23.90;53.20;;;;;;5076791;28;20078;-58
2021/04/19 04:26:56;;;;;;;5.78;3.60;;;23.90;53.20;;;;;;5095469;28;20060;-57
2021/04/19 04:29:25;;;;;;;5.03;3.83;;;23.90;53.20;;;;;;5077242;28;20430;-58
2021/04/19 04:32:11;;;;;;;3.58;3.22;;;23.90;53.20;;;;;;5095601;28;20040;-58
2021/04/19 04:34:39;;;;;;;4.28;3.65;;;23.90;53.20;;;;;;5077216;28;20052;-57
2021/04/19 04:37:07;;;;;;;4.07;3.50;;;23.90;53.20;;;;;;5077767;28;20483;-57
2021/04/19 04:39:40;;;;;;;4.60;4.10;;;23.90;53.20;;;;;;5077343;28;20024;-58
2021/04/19 04:42:12;;;;;;;4.97;3.53;;;23.90;53.20;;;;;;5060873;28;20024;-57
2021/04/19 04:44:41;;;;;;;7.47;3.88;;;23.80;53.20;;;;;;5077263;28;20028;-58
2021/04/19 04:47:16;;;;;;;5.95;3.53;;;23.90;53.30;;;;;;5095166;28;20031;-58
2021/04/19 04:49:48;;;;;;;10.15;3.85;;;23.80;53.20;;;;;;5076826;28;20365;-58
2021/04/19 04:52:15;;;;;;;6.07;3.92;;;23.80;53.20;;;;;;5077108;28;20366;-58
2021/04/19 04:54:48;;;;;;;3.92;3.50;;;23.80;53.20;;;;;;5075709;28;20083;-58
2021/04/19 04:57:20;;;;;;;4.88;3.70;;;23.80;53.30;;;;;;5076028;28;20062;-58
2021/04/19 04:59:49;;;;;;;4.95;3.60;;;23.80;53.20;;;;;;5093572;28;20450;-58
2021/04/19 05:02:20;;;;;;;5.82;3.38;;;23.90;53.30;;;;;;5074433;28;20032;-58
2021/04/19 05:04:48;;;;;;;3.65;3.15;;;23.90;53.30;;;;;;5092096;28;20415;-58
2021/04/19 05:07:14;;;;;;;4.82;3.63;;;23.90;53.30;;;;;;5094560;28;20497;-57
2021/04/19 05:09:43;;;;;;;5.53;3.53;;;23.90;53.30;;;;;;5076956;28;20032;-58
2021/04/19 05:12:10;;;;;;;6.10;3.45;;;23.80;53.20;;;;;;5094495;28;20099;-58
2021/04/19 05:14:38;;;;;;;6.80;3.65;;;23.80;53.30;;;;;;5094719;28;20024;-58
2021/04/19 05:17:04;;;;;;;5.30;3.78;;;23.90;53.30;;;;;;5094659;28;20077;-58
2021/04/19 05:19:30;;;;;;;5.85;3.30;;;23.90;53.30;;;;;;5094771;28;20058;-58
2021/04/19 05:21:56;;;;;;;5.95;3.75;;;23.90;53.30;;;;;;5092785;28;20047;-58
2021/04/19 05:24:22;;;;;;;6.05;3.53;;;23.90;53.80;;;;;;5094629;28;20028;-58
2021/04/19 05:26:48;;;;;;;4.63;3.53;;;23.80;53.20;;;;;;5094925;28;20065;-60
2021/04/19 05:29:15;;;;;;;3.35;2.92;;;23.80;53.20;;;;;;5094614;28;20071;-58
2021/04/19 05:31:41;;;;;;;5.00;3.65;;;23.90;53.20;;;;;;5094639;28;20028;-58
2021/04/19 05:34:08;;;;;;;4.75;3.47;;;23.90;53.20;;;;;;5094480;28;20420;-58
2021/04/19 05:36:35;;;;;;;5.22;3.70;;;23.80;53.20;;;;;;5076193;28;20043;-59
2021/04/19 05:39:02;;;;;;;4.82;3.47;;;23.80;53.10;;;;;;5094088;28;20027;-59
2021/04/19 05:41:29;;;;;;;4.53;3.70;;;23.90;53.80;;;;;;5094511;28;20062;-58
2021/04/19 05:43:56;;;;;;;4.88;3.78;;;23.90;53.20;;;;;;5094518;28;20374;-59
2021/04/19 05:46:22;;;;;;;5.13;3.58;;;23.80;53.10;;;;;;5094601;28;20024;-59
2021/04/19 05:48:48;;;;;;;4.57;3.25;;;23.80;53.20;;;;;;5093719;28;20032;-58
2021/04/19 05:51:42;;;;;;;4.30;3.20;;;23.80;53.10;;;;;;5093585;28;20030;-58
2021/04/19 05:54:10;;;;;;;4.78;3.15;;;23.90;53.20;;;;;;5094067;28;20027;-58
2021/04/19 05:56:36;;;;;;;4.30;3.15;;;23.80;53.10;;;;;;5093877;28;20110;-58
2021/04/19 05:59:24;;;;;;;4.80;3.15;;;23.80;53.70;;;;;;5094138;28;20541;-59
2021/04/19 06:01:54;;;;;;;5.05;3.45;;;23.80;53.10;;;;;;5094228;28;20416;-59
2021/04/19 06:04:28;;;;;;;6.65;3.55;;;23.90;53.10;;;;;;5076087;28;20394;-58
2021/04/19 06:07:02;;;;;;;3.88;2.92;;;23.80;53.00;;;;;;5069982;28;20389;-59
2021/04/19 06:09:54;;;;;;;4.03;3.25;;;23.80;53.10;;;;;;5092634;28;20116;-58
2021/04/19 06:12:46;;;;;;;4.55;3.40;;;23.80;53.10;;;;;;5093834;28;20400;-58
2021/04/19 06:15:14;;;;;;;3.40;2.97;;;23.80;53.00;;;;;;5075363;28;20047;-58
2021/04/19 06:17:49;;;;;;;6.00;3.83;;;23.80;53.10;;;;;;5093547;28;20031;-58
2021/04/19 06:20:17;;;;;;;7.80;4.50;;;23.80;53.00;;;;;;5093509;28;20047;-58
2021/04/19 06:22:44;;;;;;;4.65;4.00;;;23.80;53.00;;;;;;5092933;28;20458;-58
2021/04/19 06:25:12;;;;;;;10.13;5.72;;;23.90;53.10;;;;;;5092913;28;20126;-57
2021/04/19 06:27:39;;;;;;;18.00;9.25;;;23.80;53.00;;;;;;5093232;28;20046;-58
2021/04/19 06:30:16;;;;;;;19.02;16.58;;;23.80;53.00;;;;;;5093231;28;20024;-58
2021/04/19 06:32:44;;;;;;;29.98;26.90;;;23.90;53.00;;;;;;5093432;28;20035;-57
2021/04/19 06:35:13;;;;;;;28.90;25.90;;;23.80;53.00;;;;;;5092534;28;20113;-58
2021/04/19 06:37:39;;;;;;;30.73;27.67;;;23.80;52.90;;;;;;5075335;28;20031;-58
2021/04/19 06:40:06;;;;;;;32.58;29.08;;;23.80;53.00;;;;;;5093535;28;20428;-58
2021/04/19 06:42:34;;;;;;;34.08;30.55;;;23.80;53.00;;;;;;5093144;28;20149;-58
2021/04/19 06:45:04;;;;;;;38.17;34.08;;;23.80;52.90;;;;;;5075295;28;20056;-58
2021/04/19 06:47:34;;;;;;;36.83;32.90;;;23.90;52.90;;;;;;5093156;28;20024;-59
2021/04/19 06:50:00;;;;;;;;;;;23.90;52.90;;;;;;5093569;28;20025;-56
2021/04/19 06:52:27;;;;;;;35.67;32.08;;;23.90;53.10;;;;;;5093026;28;20269;-56
2021/04/19 06:54:54;;;;;;;36.30;32.30;;;24.00;52.60;;;;;;5093073;28;20028;-57
2021/04/19 06:57:22;;;;;;;29.73;26.55;;;24.00;52.60;;;;;;5092752;28;20024;-58
2021/04/19 06:59:48;;;;;;;29.00;22.50;;;24.00;52.40;;;;;;5092842;28;20035;-57
2021/04/19 07:02:21;;;;;;;27.13;24.52;;;23.90;52.20;;;;;;5092953;28;20108;-57
2021/04/19 07:04:51;;;;;;;26.85;23.73;;;24.00;52.90;;;;;;5092910;28;20024;-58
2021/04/19 07:07:34;;;;;;;21.65;19.35;;;24.00;52.30;;;;;;5057977;28;20371;-58
2021/04/19 07:10:04;;;;;;;19.45;17.25;;;24.00;52.00;;;;;;5078610;28;20139;-58
2021/04/19 07:12:33;;;;;;;16.40;14.73;;;24.00;52.60;;;;;;5054652;28;20066;-58
2021/04/19 07:15:03;;;;;;;14.20;12.73;;;24.00;51.80;;;;;;5072612;28;20029;-58
2021/04/19 07:17:30;;;;;;;;;;;24.00;51.70;;;;;;5072761;28;20032;-58
2021/04/19 07:19:56;;;;;;;15.65;12.18;;;24.00;52.20;;;;;;5054259;28;19943;-58
2021/04/19 07:22:22;;;;;;;14.20;11.98;;;24.10;51.70;;;;;;5071167;28;20486;-59
2021/04/19 07:24:48;;;;;;;17.23;13.88;;;24.10;51.60;;;;;;5072436;28;20039;-59
2021/04/19 07:27:16;;;;;;;17.55;15.77;;;24.00;51.60;;;;;;5072958;28;20167;-58
2021/04/19 07:29:43;;;;;;;21.08;18.58;;;24.00;51.50;;;;;;5037829;28;20099;-58
2021/04/19 07:32:10;;;;;;;22.20;19.80;;;24.10;51.50;;;;;;5072126;28;20052;-58
2021/04/19 07:34:37;;;;;;;25.48;22.85;;;24.00;51.50;;;;;;5042962;28;20055;-58
2021/04/19 07:37:06;;;;;;;33.78;29.08;;;24.10;51.50;;;;;;5052559;28;20033;-58
2021/04/19 07:39:35;;;;;;;28.88;25.88;;;24.10;51.40;;;;;;5052474;28;20082;-58
2021/04/19 07:42:05;;;;;;;29.17;26.25;;;24.10;51.40;;;;;;5052294;28;20839;-59
2021/04/19 07:44:52;;;;;;;27.88;25.08;;;24.10;51.30;;;;;;5041147;28;20031;-58
2021/04/19 07:47:25;;;;;;;29.20;21.27;;;24.10;51.30;;;;;;5058055;28;20107;-59
2021/04/19 07:50:15;;;;;;;23.52;19.85;;;24.20;51.30;;;;;;5076221;28;20039;-58
2021/04/19 07:53:02;;;;;;;19.95;16.17;;;24.20;51.00;;;;;;5076493;28;20029;-59
2021/04/19 07:55:42;;;;;;;16.10;14.40;;;24.20;51.10;;;;;;5076157;28;20051;-59
2021/04/19 07:58:25;;;;;;;18.73;14.10;;;24.20;51.50;;;;;;5076051;28;20812;-60
2021/04/19 08:01:00;;;;;;;17.90;15.32;;;24.20;50.90;;;;;;5058382;28;20377;-59
2021/04/19 08:03:39;;;;;;;12.98;11.68;;;24.30;50.90;;;;;;5075848;28;20100;-59
2021/04/19 08:06:26;;;;;;;13.30;11.77;;;24.30;50.90;;;;;;5075685;28;20450;-60
2021/04/19 08:09:03;;;;;;;11.07;9.82;;;24.30;50.90;;;;;;5075521;28;20060;-58
2021/04/19 08:11:43;;;;;;;14.05;11.65;;;24.30;50.90;;;;;;5075863;28;20024;-59
2021/04/19 08:14:09;;;;;;;14.10;12.57;;;24.30;50.80;;;;;;5057988;28;20032;-58
2021/04/19 08:16:35;;;;;;;14.70;10.95;;;24.30;50.80;;;;;;5075073;28;20515;-58
2021/04/19 08:19:02;;;;;;;12.48;11.20;;;24.30;50.80;;;;;;5056272;28;20036;-58
2021/04/19 08:21:29;;;;;;;12.38;10.75;;;24.40;50.80;;;;;;5056537;28;20359;-58
2021/04/19 08:24:09;;;;;;;11.68;10.30;;;24.30;50.70;;;;;;5074170;28;20025;-59
2021/04/19 08:27:00;;;;;;;11.20;9.98;;;24.40;50.70;;;;;;5073946;28;20052;-59
2021/04/19 08:29:42;;;;;;;12.18;10.52;;;24.40;50.60;;;;;;5056051;28;20028;-59
2021/04/19 08:32:09;;;;;;;13.25;11.82;;;24.50;50.60;;;;;;5073915;28;20051;-59
2021/04/19 08:34:36;;;;;;;14.50;12.32;;;24.50;50.50;;;;;;5085326;28;20102;-58
2021/04/19 08:37:07;;;;;;;15.05;13.50;;;24.60;50.50;;;;;;5075957;28;20058;-59
2021/04/19 08:39:34;;;;;;;15.10;13.63;;;24.60;50.40;;;;;;5094005;28;20470;-59
2021/04/19 08:42:02;;;;;;;15.98;14.32;;;24.60;50.40;;;;;;5093941;28;20016;-59
2021/04/19 08:44:35;;;;;;;16.08;12.40;;;24.70;50.30;;;;;;5077399;28;20452;-59
2021/04/19 08:47:02;;;;;;;15.65;11.30;;;24.70;50.20;;;;;;5076653;28;20028;-59
2021/04/19 08:49:29;;;;;;;12.40;11.07;;;24.70;50.10;;;;;;5095044;28;20031;-59
2021/04/19 08:51:55;;;;;;;15.50;10.98;;;24.80;50.10;;;;;;5094861;28;20035;-59
2021/04/19 08:54:22;;;;;;;13.48;12.18;;;24.80;50.10;;;;;;5095117;28;20036;-57
2021/04/19 08:56:50;;;;;;;14.27;11.32;;;24.80;50.00;;;;;;5091597;28;20236;-59
2021/04/19 08:59:17;;;;;;;12.70;11.05;;;24.90;50.00;;;;;;5073960;28;20035;-58
2021/04/19 09:01:45;;;;;;;13.55;10.10;;;24.90;50.00;;;;;;5074068;28;20040;-58
2021/04/19 09:04:11;;;;;;;11.07;8.25;;;24.90;49.90;;;;;;5056746;28;20044;-58
2021/04/19 09:06:49;;;;;;;9.55;6.50;;;24.90;49.80;;;;;;5056527;28;20052;-58
2021/04/19 09:09:36;;;;;;;6.60;5.93;;;24.90;49.50;;;;;;5074452;28;20056;-58
2021/04/19 09:12:11;;;;;;;8.05;5.97;;;24.90;49.60;;;;;;5074353;28;20032;-58
2021/04/19 09:14:42;;;;;;;6.30;4.88;;;24.90;50.00;;;;;;5056189;28;20039;-56
2021/04/19 09:17:09;;;;;;;9.88;4.90;;;25.00;49.40;;;;;;5073721;28;20043;-57
2021/04/19 09:19:37;;;;;;;6.45;4.35;;;25.00;49.50;;;;;;5074304;28;20020;-57
2021/04/19 09:22:13;;;;;;;6.68;4.90;;;25.00;49.50;;;;;;5073969;28;20025;-57
2021/04/19 09:25:12;;;;;;;8.70;4.75;;;25.10;49.50;;;;;;5074082;28;20463;-58
2021/04/19 09:27:56;;;;;;;9.52;5.20;;;25.10;49.40;;;;;;5073706;28;20382;-58
2021/04/19 09:30:29;;;;;;;7.88;3.85;;;25.10;49.30;;;;;;5073749;28;20036;-59
2021/04/19 09:33:04;;;;;;;7.90;3.67;;;25.20;49.00;;;;;;5073429;28;20378;-60
2021/04/19 09:35:39;;;;;;;5.68;4.03;;;25.40;48.70;;;;;;5055502;28;20428;-61
2021/04/19 09:38:48;;;;;;;5.85;3.25;;;25.20;48.70;;;;;;5038504;28;20431;-59
2021/04/19 09:41:16;;;;;;;7.00;3.30;;;25.20;48.60;;;;;;5073396;28;20103;-59
2021/04/19 09:43:54;;;;;;;5.60;3.38;;;25.30;48.80;;;;;;5055021;28;20024;-58
2021/04/19 09:46:21;;;;;;;7.28;3.65;;;25.30;48.60;;;;;;5073321;28;20032;-55
2021/04/19 09:48:52;;;;;;;3.80;2.85;;;25.20;48.80;;;;;;5073186;28;20016;-57
2021/04/19 09:51:29;;;;;;;3.80;2.47;;;25.10;48.90;;;;;;5055619;28;20037;-53
2021/04/19 09:53:58;;;;;;;5.07;3.35;;;25.10;49.20;;;;;;5073303;28;20028;-53
2021/04/19 09:56:29;;;;;;;6.05;2.90;;;25.20;49.20;;;;;;5073524;28;20417;-53
2021/04/19 09:58:56;;;;;;;5.85;2.90;;;25.20;49.20;;;;;;5073356;28;20082;-53
2021/04/19 10:01:26;;;;;;;7.65;5.78;;;25.20;49.30;;;;;;5055398;28;20032;-54
2021/04/19 10:03:54;;;;;;;10.80;6.80;;;25.20;49.20;;;;;;5073297;28;20116;-54
2021/04/19 10:06:36;;;;;;;9.13;5.88;;;25.30;49.40;;;;;;5073266;28;20040;-54
2021/04/19 10:09:06;;;;;;;6.18;4.55;;;25.30;49.30;;;;;;5072216;28;20041;-54
2021/04/19 10:11:35;;;;;;;8.05;4.13;;;25.30;49.20;;;;;;5073109;28;20119;-53
2021/04/19 10:14:13;;;;;;;5.32;3.20;;;25.30;49.10;;;;;;5072276;28;20031;-54
2021/04/19 10:16:47;;;;;;;3.65;2.70;;;25.30;48.90;;;;;;5072311;28;20033;-54
2021/04/19 10:19:25;;;;;;;6.25;2.80;;;25.40;49.00;;;;;;5071316;28;20036;-54
2021/04/19 10:22:11;;;;;;;6.53;3.75;;;25.40;48.60;;;;;;5072671;28;20032;-57
2021/04/19 10:24:48;;;;;;;63.25;56.90;;;25.40;48.70;;;;;;5072417;28;20107;-58
2021/04/19 10:27:26;;;;;;;35.75;32.13;;;25.50;48.50;;;;;;5073129;28;20090;-57
2021/04/19 10:29:53;;;;;;;17.13;14.23;;;25.50;48.20;;;;;;5071357;28;20040;-58
2021/04/19 10:32:31;;;;;;;13.27;9.57;;;25.50;48.30;;;;;;5072726;28;20024;-58
2021/04/19 10:34:58;;;;;;;10.63;7.32;;;25.50;48.40;;;;;;5086912;28;20434;-58
2021/04/19 10:37:24;;;;;;;8.68;5.85;;;25.50;48.40;;;;;;5092494;28;20085;-58
2021/04/19 10:39:50;;;;;;;11.00;5.93;;;25.50;48.40;;;;;;5092535;28;20171;-59
2021/04/19 10:42:28;;;;;;;7.50;4.72;;;25.50;48.40;;;;;;5074409;28;20055;-59
2021/04/19 10:44:57;;;;;;;5.55;4.32;;;25.50;48.40;;;;;;5071487;28;20036;-59
2021/04/19 10:47:29;;;;;;;7.40;4.28;;;25.50;48.50;;;;;;5071856;28;20405;-59
2021/04/19 10:49:56;;;;;;;5.45;3.20;;;25.60;48.50;;;;;;5053980;28;20079;-58
2021/04/19 10:52:22;;;;;;;5.25;3.17;;;25.60;48.60;;;;;;5054483;28;20027;-58
2021/04/19 10:54:49;;;;;;;3.97;3.00;;;25.60;48.50;;;;;;5071859;28;20032;-59
2021/04/19 10:57:25;;;;;;;5.00;3.22;;;25.70;48.60;;;;;;5072069;28;20051;-59
2021/04/19 10:59:55;;;;;;;7.05;3.10;;;25.70;48.40;;;;;;5071945;28;20024;-59
2021/04/19 11:02:27;;;;;;;5.43;3.05;;;25.70;48.50;;;;;;5072390;28;20038;-57
2021/04/19 11:04:54;;;;;;;5.22;2.95;;;25.70;48.50;;;;;;5071872;28;20447;-57
2021/04/19 11:07:38;;;;;;;6.45;2.25;;;25.80;48.30;;;;;;5071897;28;20040;-58
2021/04/19 11:10:23;;;;;;;4.30;2.22;;;25.80;48.10;;;;;;5054660;28;20024;-59
2021/04/19 11:13:02;;;;;;;9.60;6.03;;;25.90;48.20;;;;;;5091971;28;20039;-60
2021/04/19 11:15:31;;;;;;;58.08;52.33;;;25.90;48.10;;;;;;5091834;28;20354;-57
2021/04/19 11:17:57;;;;;;;53.35;48.17;;;26.00;47.80;;;;;;5057243;28;20439;-57
2021/04/19 11:20:30;;;;;;;53.15;47.70;;;26.00;47.80;;;;;;5505492;22;20057;-52
2021/04/19 11:22:59;;;;;;;35.28;31.48;;;26.10;47.90;;;;;;5062102;28;20489;-57
2021/04/19 11:25:30;;;;;;;22.55;20.08;;;26.10;48.00;;;;;;5066618;28;20032;-57
2021/04/19 11:28:16;;;;;;;19.13;16.88;;;26.10;47.90;;;;;;5051948;28;20033;-57
2021/04/19 11:30:42;;;;;;;19.60;15.88;;;26.10;47.90;;;;;;5051812;28;20033;-56
2021/04/19 11:33:08;;;;;;;11.02;9.85;;;26.20;47.80;;;;;;5052304;28;20046;-55
2021/04/19 11:35:43;;;;;;;11.32;10.23;;;26.20;47.90;;;;;;5069626;28;20104;-56
2021/04/19 11:38:20;;;;;;;7.72;6.68;;;26.30;47.60;;;;;;5051440;28;20033;-55
2021/04/19 11:40:49;;;;;;;7.32;5.93;;;26.30;47.60;;;;;;5069441;28;20056;-56
2021/04/19 11:43:26;;;;;;;10.80;5.55;;;26.40;47.70;;;;;;5069635;28;20430;-56
2021/04/19 11:46:03;;;;;;;5.55;4.20;;;26.40;47.40;;;;;;5069451;28;20033;-55
2021/04/19 11:48:30;;;;;;;6.40;3.88;;;26.40;47.30;;;;;;5069700;28;20115;-54
2021/04/19 11:50:57;;;;;;;6.47;3.95;;;26.50;47.40;;;;;;5034334;28;20024;-54
2021/04/19 11:53:28;;;;;;;7.65;3.58;;;26.50;47.30;;;;;;5069442;28;20024;-55
2021/04/19 11:55:55;;;;;;;5.57;3.53;;;26.60;47.30;;;;;;5069418;28;20032;-69
2021/04/19 11:58:22;;;;;;;3.45;2.85;;;26.60;47.30;;;;;;5069356;28;20060;-56
2021/04/19 12:00:49;;;;;;;9.80;3.88;;;26.60;47.20;;;;;;5068732;28;20443;-56
2021/04/19 12:03:16;;;;;;;8.63;4.45;;;26.70;47.30;;;;;;5068466;28;20381;-55
2021/04/19 12:05:42;;;;;;;4.63;2.47;;;26.80;47.10;;;;;;5033369;28;20024;-55
2021/04/19 12:08:09;;;;;;;6.57;3.28;;;26.80;47.00;;;;;;5050611;28;20075;-55
2021/04/19 12:10:37;;;;;;;4.75;2.53;;;26.80;46.90;;;;;;5069152;28;20028;-55
2021/04/19 12:13:03;;;;;;;9.63;3.47;;;26.80;46.70;;;;;;5051439;28;20477;-55
2021/04/19 12:15:30;;;;;;;7.63;2.80;;;26.80;46.80;;;;;;5034713;28;20137;-55
2021/04/19 12:17:56;;;;;;;6.40;2.70;;;26.80;47.00;;;;;;5069289;28;20037;-56
2021/04/19 12:20:26;;;;;;;4.75;2.80;;;26.80;47.00;;;;;;5050844;28;20056;-56
2021/04/19 12:22:52;;;;;;;8.00;3.00;;;26.80;47.10;;;;;;5069637;28;20119;-55
2021/04/19 12:25:18;;;;;;;6.15;2.70;;;26.80;47.10;;;;;;5051491;28;20501;-56
2021/04/19 12:27:44;;;;;;;5.85;2.83;;;26.80;47.20;;;;;;5069625;28;20377;-55
2021/04/19 12:30:11;;;;;;;6.00;2.75;;;26.70;47.20;;;;;;5069210;28;20051;-55
2021/04/19 12:32:37;;;;;;;6.55;2.58;;;26.70;47.20;;;;;;5070209;28;20043;-55
2021/04/19 12:35:03;;;;;;;5.75;3.13;;;26.70;47.30;;;;;;5072148;28;20024;-56
2021/04/19 12:37:29;;;;;;;5.10;2.67;;;26.70;47.30;;;;;;5055675;28;20170;-54
2021/04/19 12:39:55;;;;;;;5.35;2.60;;;26.70;47.40;;;;;;5055562;28;20115;-56
2021/04/19 12:42:21;;;;;;;4.78;2.22;;;26.70;47.40;;;;;;5056093;28;20027;-56
2021/04/19 12:44:47;;;;;;;7.38;3.13;;;26.80;47.50;;;;;;5073629;28;20416;-56
2021/04/19 12:47:13;;;;;;;6.25;2.60;;;26.80;47.50;;;;;;5056045;28;20362;-55
2021/04/19 12:49:39;;;;;;;4.00;2.58;;;26.90;47.50;;;;;;5055163;28;20058;-56
2021/04/19 12:52:06;;;;;;;3.30;2.70;;;26.90;47.50;;;;;;5073638;28;20036;-55
2021/04/19 12:54:32;;;;;;;3.45;2.22;;;26.90;47.50;;;;;;5073192;28;20769;-56
2021/04/19 12:56:58;;;;;;;5.13;2.92;;;26.90;47.40;;;;;;5073123;28;20350;-55
2021/04/19 12:59:24;;;;;;;3.55;2.15;;;26.90;47.40;;;;;;5073418;28;20029;-55
2021/04/19 13:01:50;;;;;;;2.88;2.00;;;27.00;47.40;;;;;;5073511;28;20500;-56
2021/04/19 13:04:17;;;;;;;6.93;2.90;;;27.00;47.40;;;;;;5055647;28;20064;-55